Time;durP1;ratioP1;P1;durP2;ratioP2;P2;SDS_P1;SDS_P2;PMS_P1;PMS_P2;Temp;Humidity;BMP_temperature;BMP_pressure;BME280_temperature;BME280_humidity;BME280_pressure;Samples;Min_cycle;Max_cycle;Signal;HPM_P1;HPM_P2
2022/05/30 00:01:42;;;;;;;;;3.00;2.00;;;;;14.29;49.79;100763.72;5119708;27;45115;-80
2022/05/30 00:04:07;;;;;;;;;2.00;2.00;;;;;14.21;49.68;100752.09;5128529;27;46106;-81
2022/05/30 00:06:33;;;;;;;;;2.25;2.00;;;;;13.99;49.77;100705.88;5129399;27;45324;-80
2022/05/30 00:08:58;;;;;;;;;2.50;2.50;;;;;14.06;49.70;100726.25;5129880;27;45094;-80
2022/05/30 00:11:26;;;;;;;;;1.00;1.00;;;;;14.11;49.80;100726.34;5129791;27;45074;-79
2022/05/30 00:13:52;;;;;;;;;3.00;3.00;;;;;14.17;50.02;100737.03;5129427;27;45898;-79
2022/05/30 00:16:20;;;;;;;;;3.00;2.00;;;;;14.23;49.89;100742.44;5129689;27;44969;-80
2022/05/30 00:18:45;;;;;;;;;3.00;3.00;;;;;14.00;49.89;100696.19;5129243;27;44965;-81
2022/05/30 00:21:12;;;;;;;;;3.00;3.00;;;;;14.28;50.01;100745.16;5129643;27;45053;-81
2022/05/30 00:23:37;;;;;;;;;2.75;2.75;;;;;13.96;50.06;100699.63;5129177;27;45454;-80
2022/05/30 00:26:07;;;;;;;;;3.00;3.00;;;;;13.93;50.34;100698.69;5111588;27;45249;-81
2022/05/30 00:28:33;;;;;;;;;3.00;3.00;;;;;13.90;50.16;100696.00;5129232;27;45210;-79
2022/05/30 00:30:58;;;;;;;;;2.75;2.75;;;;;13.80;50.30;100687.84;5110697;27;45283;-81
2022/05/30 00:33:24;;;;;;;;;2.00;2.00;;;;;13.67;50.76;100670.84;5133216;27;45925;-78
2022/05/30 00:35:49;;;;;;;;;2.75;2.00;;;;;13.85;50.61;100705.56;5125947;27;45115;-80
2022/05/30 00:38:14;;;;;;;;;4.00;3.00;;;;;13.63;50.91;100666.34;5119066;27;45224;-80
2022/05/30 00:40:41;;;;;;;;;2.00;2.00;;;;;14.02;50.71;100739.38;5111877;27;45291;-80
2022/05/30 00:43:32;;;;;;;;;2.00;2.00;;;;;14.01;51.01;100738.47;5112335;27;45387;-80
2022/05/30 00:46:00;;;;;;;;;2.00;2.00;;;;;13.92;50.96;100719.78;5093619;27;45860;-80
2022/05/30 00:48:35;;;;;;;;;2.00;2.00;;;;;13.96;51.09;100734.84;5093428;27;45097;-80
2022/05/30 00:51:07;;;;;;;;;1.00;1.00;;;;;13.93;51.02;100729.50;5111935;27;45021;-79
2022/05/30 00:53:34;;;;;;;;;3.75;2.00;;;;;13.59;51.39;100672.44;5111581;27;45342;-79
2022/05/30 00:56:02;;;;;;;;;2.50;2.00;;;;;13.52;51.50;100670.53;5112401;27;45168;-81
2022/05/30 00:58:31;;;;;;;;;1.75;1.75;;;;;13.87;51.46;100735.56;5112204;27;45380;-80
2022/05/30 01:00:57;;;;;;;;;2.50;2.50;;;;;13.86;51.38;100735.53;5111914;27;45266;-81
2022/05/30 01:08:53;;;;;;;;;1.00;1.00;;;;;13.60;51.88;100692.72;5111370;27;45159;-79
2022/05/30 01:11:18;;;;;;;;;1.75;1.00;;;;;13.58;52.07;100687.38;5111901;27;45078;-80
2022/05/30 01:13:43;;;;;;;;;2.00;1.00;;;;;13.70;51.97;100699.97;5111650;27;46117;-80
2022/05/30 01:16:10;;;;;;;;;2.67;2.67;;;;;13.73;52.09;100710.59;5093041;27;45490;-80
2022/05/30 01:18:46;;;;;;;;;4.00;2.00;;;;;13.58;52.12;100686.50;5093496;27;45079;-81
2022/05/30 01:21:41;;;;;;;;;2.25;2.00;;;;;13.74;52.39;100711.47;5111974;27;45125;-80
2022/05/30 01:24:22;;;;;;;;;2.75;2.75;;;;;13.72;52.42;100716.75;5093310;27;47758;-82
2022/05/30 01:26:47;;;;;;;;;2.00;2.00;;;;;13.68;52.38;100704.31;5111627;27;45406;-80
2022/05/30 01:29:31;;;;;;;;;3.00;3.00;;;;;13.69;52.63;100706.09;5111712;27;45314;-80
2022/05/30 01:31:57;;;;;;;;;3.00;2.75;;;;;13.63;52.57;100703.34;5111522;27;45022;-79
2022/05/30 01:34:24;;;;;;;;;1.75;1.75;;;;;13.64;52.70;100703.38;5111652;27;45277;-80
2022/05/30 01:36:50;;;;;;;;;1.25;1.25;;;;;13.63;52.99;100701.59;5111220;27;45554;-79
2022/05/30 01:39:15;;;;;;;;;2.00;2.00;;;;;13.49;52.86;100678.38;5092755;27;45316;-80
2022/05/30 01:41:41;;;;;;;;;2.25;2.25;;;;;13.54;52.85;100688.16;5111701;27;45056;-79
2022/05/30 01:44:06;;;;;;;;;4.00;3.00;;;;;13.47;52.97;100688.91;5126390;27;46524;-79
2022/05/30 01:46:31;;;;;;;;;2.00;2.00;;;;;13.37;53.07;100666.69;5129790;27;45079;-80
2022/05/30 01:48:57;;;;;;;;;3.00;3.00;;;;;13.26;53.04;100662.94;5121384;27;45367;-80
2022/05/30 01:51:22;;;;;;;;;3.00;3.00;;;;;13.17;53.29;100641.59;5132011;27;45226;-80
2022/05/30 01:53:49;;;;;;;;;3.00;3.00;;;;;13.54;53.28;100709.28;5131480;27;45964;-80
2022/05/30 01:56:15;;;;;;;;;3.00;2.75;;;;;13.25;53.96;100654.97;5132600;27;45429;-79
2022/05/30 01:58:40;;;;;;;;;4.25;3.00;;;;;13.35;53.53;100675.47;5112636;27;45061;-80
2022/05/30 02:01:14;;;;;;;;;3.50;3.00;;;;;13.28;53.66;100662.97;5130855;27;45131;-79
2022/05/30 02:03:39;;;;;;;;;3.00;3.00;;;;;13.24;53.99;100658.47;5112560;27;47417;-81
2022/05/30 02:06:05;;;;;;;;;3.00;3.00;;;;;13.36;53.68;100680.75;5131280;27;45312;-81
2022/05/30 02:08:30;;;;;;;;;5.25;4.00;;;;;13.32;53.54;100676.25;5131438;27;45182;-77
2022/05/30 02:10:55;;;;;;;;;3.00;3.00;;;;;13.40;53.79;100690.53;5117900;27;45308;-79
2022/05/30 02:13:21;;;;;;;;;3.75;3.25;;;;;13.13;54.04;100642.38;5110649;27;45095;-80
2022/05/30 02:18:48;;;;;;;;;4.00;3.25;;;;;13.42;54.18;100699.38;5087109;28;45260;-81
2022/05/30 02:21:13;;;;;;;;;4.67;4.67;;;;;13.26;54.21;100668.22;5103311;27;45483;-81
2022/05/30 02:23:38;;;;;;;;;5.75;5.00;;;;;13.37;54.44;100693.09;5131251;27;45337;-80
2022/05/30 02:26:04;;;;;;;;;5.00;5.00;;;;;13.34;54.44;100687.72;5112507;27;45205;-79
2022/05/30 02:28:29;;;;;;;;;4.25;3.75;;;;;13.25;54.19;100673.44;5131304;27;45149;-79
2022/05/30 02:30:54;;;;;;;;;4.00;4.00;;;;;13.37;54.42;100708.94;5130820;27;45178;-80
2022/05/30 02:38:48;;;;;;;;;3.25;3.00;;;;;12.99;54.53;100641.16;5109952;27;45162;-81
2022/05/30 02:41:14;;;;;;;;;6.00;5.75;;;;;13.05;54.65;100651.84;5110976;27;45407;-79
2022/05/30 02:43:39;;;;;;;;;3.50;3.50;;;;;13.08;54.62;100667.75;5110466;27;45886;-81
2022/05/30 02:46:05;;;;;;;;;4.75;4.00;;;;;13.03;54.76;100656.22;5110558;27;45445;-79
2022/05/30 02:48:30;;;;;;;;;3.50;3.50;;;;;13.05;54.57;100663.31;5110159;27;45035;-80
2022/05/30 02:50:56;;;;;;;;;4.00;3.33;;;;;12.81;54.65;100621.44;5117298;27;45056;-81
2022/05/30 02:53:21;;;;;;;;;4.50;3.75;;;;;13.04;54.62;100669.44;5115201;27;45669;-80
2022/05/30 02:55:47;;;;;;;;;3.75;3.50;;;;;13.11;54.65;100681.91;5109438;27;45142;-81
2022/05/30 02:58:12;;;;;;;;;3.50;3.50;;;;;13.08;54.74;100689.75;5091522;27;45128;-79
2022/05/30 03:00:38;;;;;;;;;4.50;3.75;;;;;12.78;54.87;100644.19;5110160;27;45179;-82
2022/05/30 03:03:04;;;;;;;;;4.25;4.00;;;;;12.89;54.90;100662.03;5110571;27;46362;-82
2022/05/30 03:05:30;;;;;;;;;5.00;4.00;;;;;13.06;55.14;100690.59;5110336;27;44955;-84
2022/05/30 03:07:56;;;;;;;;;3.50;3.25;;;;;12.81;55.16;100650.44;5111008;27;45302;-80
2022/05/30 03:10:21;;;;;;;;;5.00;4.00;;;;;12.68;55.27;100635.16;5100860;27;45057;-83
2022/05/30 03:12:46;;;;;;;;;6.75;6.00;;;;;12.98;55.32;100684.22;5131016;27;45223;-82
2022/05/30 03:15:12;;;;;;;;;3.25;3.00;;;;;13.01;55.61;100697.50;5131576;27;44937;-83
2022/05/30 03:17:37;;;;;;;;;5.75;5.00;;;;;12.88;55.39;100672.56;5112386;27;45528;-81
2022/05/30 03:20:03;;;;;;;;;5.25;5.00;;;;;12.76;55.89;100660.00;5112066;27;45414;-83
2022/05/30 03:22:29;;;;;;;;;5.75;5.50;;;;;12.99;55.55;100696.56;5126502;27;46836;-81
2022/05/30 03:24:54;;;;;;;;;6.25;4.75;;;;;12.60;55.92;100631.44;5091541;27;45176;-83
2022/05/30 03:27:19;;;;;;;;;4.00;4.00;;;;;12.91;55.78;100680.56;5110390;27;45319;-82
2022/05/30 03:29:45;;;;;;;;;4.67;4.67;;;;;12.53;55.82;100627.78;5110029;27;45225;-81
2022/05/30 03:32:10;;;;;;;;;6.00;6.00;;;;;12.70;55.91;100653.66;5112834;27;46367;-82
2022/05/30 03:34:35;;;;;;;;;5.00;5.00;;;;;12.65;56.11;100640.34;5109515;27;45169;-82
2022/05/30 03:37:01;;;;;;;;;4.00;4.00;;;;;12.74;55.99;100661.69;5110063;27;45196;-80
2022/05/30 03:39:26;;;;;;;;;5.00;4.25;;;;;12.62;56.28;100653.47;5109558;27;45216;-84
2022/05/30 03:41:51;;;;;;;;;6.00;4.25;;;;;12.80;56.34;100685.56;5121381;27;46457;-82
2022/05/30 03:44:17;;;;;;;;;7.00;5.00;;;;;12.61;56.19;100660.50;5128767;27;45318;-79
2022/05/30 03:46:42;;;;;;;;;5.00;4.25;;;;;12.74;56.08;100682.78;5126075;27;46509;-79
2022/05/30 03:49:07;;;;;;;;;5.00;5.00;;;;;12.65;55.99;100675.53;5121180;27;46794;-82
2022/05/30 03:51:33;;;;;;;;;5.25;5.25;;;;;12.81;56.04;100713.75;5108378;27;47741;-80
2022/05/30 03:53:58;;;;;;;;;3.75;3.75;;;;;12.51;56.33;100654.94;5126974;27;45198;-80
2022/05/30 03:56:24;;;;;;;;;6.00;6.00;;;;;12.48;56.45;100663.69;5126593;27;45094;-81
2022/05/30 03:58:49;;;;;;;;;5.50;5.50;;;;;12.61;56.42;100689.50;5129330;27;45284;-80
2022/05/30 04:01:14;;;;;;;;;6.00;5.00;;;;;12.02;56.67;100588.72;5129724;27;45316;-80
2022/05/30 04:03:40;;;;;;;;;3.75;3.75;;;;;12.53;56.60;100675.22;5129499;27;45352;-79
2022/05/30 04:06:07;;;;;;;;;5.25;5.00;;;;;12.67;56.72;100706.34;5123067;27;45059;-80
2022/05/30 04:08:33;;;;;;;;;5.00;5.00;;;;;12.51;56.61;100678.66;5130212;27;45393;-78
2022/05/30 04:10:59;;;;;;;;;4.00;4.00;;;;;12.47;56.67;100672.44;5127552;27;45275;-80
2022/05/30 04:13:25;;;;;;;;;5.00;5.00;;;;;12.45;56.59;100673.25;5124031;27;45588;-79
2022/05/30 04:15:50;;;;;;;;;6.25;5.00;;;;;12.65;56.74;100707.16;5119771;27;45453;-81
2022/05/30 04:18:16;;;;;;;;;6.00;6.00;;;;;12.63;57.04;100708.88;5110429;27;45504;-79
2022/05/30 04:20:41;;;;;;;;;4.00;4.00;;;;;12.50;56.85;100683.03;5112500;27;45708;-80
2022/05/30 04:23:08;;;;;;;;;5.00;4.75;;;;;12.78;56.81;100731.22;5116711;27;45488;-80
2022/05/30 04:25:33;;;;;;;;;5.00;4.25;;;;;12.51;56.77;100683.94;5112106;27;45588;-79
2022/05/30 04:27:59;;;;;;;;;5.50;5.00;;;;;12.62;56.53;100698.31;5120775;27;45674;-80
2022/05/30 04:30:25;;;;;;;;;5.25;4.50;;;;;12.54;56.75;100684.03;5132349;27;45410;-81
2022/05/30 04:32:50;;;;;;;;;5.25;4.75;;;;;12.61;56.46;100700.06;5132646;27;45178;-80
2022/05/30 04:35:16;;;;;;;;;7.00;5.00;;;;;12.39;56.68;100659.06;5121083;27;45193;-79
2022/05/30 04:37:42;;;;;;;;;4.75;4.75;;;;;12.45;56.58;100666.22;5112096;27;45234;-82
2022/05/30 04:40:13;;;;;;;;;6.00;4.50;;;;;12.83;56.73;100735.75;5116748;27;45652;-81
2022/05/30 04:42:39;;;;;;;;;6.00;6.00;;;;;12.85;56.63;100739.31;5123110;27;46986;-85
2022/05/30 04:45:05;;;;;;;;;6.00;5.00;;;;;12.52;56.58;100675.19;5113341;27;44930;-79
2022/05/30 04:47:35;;;;;;;;;5.00;5.00;;;;;12.53;56.66;100676.97;5112815;27;45419;-80
2022/05/30 04:50:06;;;;;;;;;5.50;5.00;;;;;12.71;56.68;100709.09;5090792;27;46432;-80
2022/05/30 04:52:31;;;;;;;;;7.25;6.00;;;;;12.54;56.59;100669.09;5091547;27;45460;-81
2022/05/30 04:54:57;;;;;;;;;5.50;5.00;;;;;12.48;56.30;100663.69;5092735;27;45406;-80
2022/05/30 04:57:22;;;;;;;;;6.00;6.00;;;;;12.65;56.24;100687.81;5093300;27;45567;-80
2022/05/30 04:59:48;;;;;;;;;5.25;4.50;;;;;12.76;56.37;100712.72;5092156;27;50638;-79
2022/05/30 05:02:16;;;;;;;;;5.00;5.00;;;;;12.58;56.26;100675.34;5090245;27;45564;-80
2022/05/30 05:04:41;;;;;;;;;7.00;6.00;;;;;12.68;56.49;100695.81;5090962;27;45472;-79
2022/05/30 05:07:08;;;;;;;;;5.00;5.00;;;;;12.71;56.58;100708.16;5091720;27;45497;-81
2022/05/30 05:09:51;;;;;;;;;5.50;5.00;;;;;12.98;56.61;100748.44;5089890;27;45770;-80
2022/05/30 05:12:16;;;;;;;;;4.50;4.50;;;;;12.63;56.32;100685.16;5090934;27;45534;-80
2022/05/30 05:14:41;;;;;;;;;7.00;5.75;;;;;12.91;56.34;100731.56;5090752;27;45438;-79
2022/05/30 05:17:09;;;;;;;;;8.00;6.75;;;;;12.82;56.15;100709.34;5091586;27;45557;-80
2022/05/30 05:19:36;;;;;;;;;5.75;4.25;;;;;12.79;56.30;100704.88;5092464;27;45410;-79
2022/05/30 05:22:02;;;;;;;;;6.50;6.00;;;;;12.90;56.29;100716.56;5092639;27;45354;-79
2022/05/30 05:24:27;;;;;;;;;5.00;5.00;;;;;12.79;56.29;100699.59;5091928;27;46010;-80
2022/05/30 05:26:52;;;;;;;;;7.00;7.00;;;;;12.88;56.21;100714.78;5073979;27;45400;-80
2022/05/30 05:29:18;;;;;;;;;4.75;4.00;;;;;13.10;56.10;100753.09;5092558;27;45354;-79
2022/05/30 05:31:45;;;;;;;;;5.00;5.00;;;;;13.12;56.09;100743.50;5091153;27;45824;-80
2022/05/30 05:34:13;;;;;;;;;7.00;7.00;;;;;13.14;56.22;100747.94;5092860;27;45425;-80
2022/05/30 05:36:41;;;;;;;;;6.50;6.25;;;;;12.82;55.89;100704.97;5092343;27;45466;-79
2022/05/30 05:39:08;;;;;;;;;7.25;6.75;;;;;13.04;56.43;100735.38;5092243;27;45647;-81
2022/05/30 05:41:34;;;;;;;;;6.25;6.25;;;;;13.08;56.07;100734.59;5091868;27;46007;-80
2022/05/30 05:43:59;;;;;;;;;7.50;6.00;;;;;13.00;56.24;100708.88;5092336;27;45417;-79
2022/05/30 05:46:30;;;;;;;;;6.75;6.50;;;;;13.12;56.15;100722.38;5091506;27;45502;-80
2022/05/30 05:48:57;;;;;;;;;5.50;5.50;;;;;13.05;56.23;100704.63;5091708;27;45438;-80
2022/05/30 05:51:23;;;;;;;;;5.75;5.75;;;;;13.33;55.85;100751.94;5092287;27;45489;-79
2022/05/30 05:53:49;;;;;;;;;5.50;5.25;;;;;13.14;55.92;100712.75;5092196;27;45746;-79
2022/05/30 05:56:29;;;;;;;;;6.50;5.50;;;;;13.34;55.98;100742.28;5092083;27;45495;-79
2022/05/30 05:58:55;;;;;;;;;5.00;5.00;;;;;13.48;55.79;100761.09;5091900;27;46187;-80
2022/05/30 06:01:23;;;;;;;;;6.75;6.75;;;;;13.43;55.52;100748.66;5091298;27;45450;-80
2022/05/30 06:03:52;;;;;;;;;5.75;5.75;;;;;13.37;55.53;100732.69;5073188;27;45506;-79
2022/05/30 06:06:18;;;;;;;;;6.75;6.00;;;;;13.52;55.34;100753.28;5092480;27;45552;-79
2022/05/30 06:08:43;;;;;;;;;6.00;6.00;;;;;13.37;54.95;100724.78;5090868;27;45451;-81
2022/05/30 06:11:08;;;;;;;;;7.00;6.00;;;;;13.36;55.13;100716.84;5073252;27;45454;-79
2022/05/30 06:13:35;;;;;;;;;6.50;6.50;;;;;13.48;55.05;100721.47;5073232;27;45918;-80
2022/05/30 06:16:07;;;;;;;;;5.25;5.00;;;;;13.43;55.00;100714.34;5091454;27;45625;-82
2022/05/30 06:18:33;;;;;;;;;6.00;6.00;;;;;13.71;54.95;100745.78;5091205;27;46340;-80
2022/05/30 06:20:59;;;;;;;;;8.25;6.00;;;;;13.86;54.82;100768.13;5091504;27;45375;-79
2022/05/30 06:23:25;;;;;;;;;7.50;7.50;;;;;13.81;54.55;100750.38;5091506;27;45566;-80
2022/05/30 06:25:50;;;;;;;;;6.00;5.00;;;;;13.62;54.80;100712.13;5091404;27;45453;-80
2022/05/30 06:28:16;;;;;;;;;6.33;6.00;;;;;13.88;54.80;100753.19;5091710;27;46773;-80
2022/05/30 06:30:41;;;;;;;;;6.67;6.00;;;;;13.76;54.71;100723.00;5090246;27;45593;-80
2022/05/30 06:33:06;;;;;;;;;7.00;7.00;;;;;13.81;54.54;100726.63;5091068;27;45339;-80
2022/05/30 06:35:32;;;;;;;;;6.00;5.00;;;;;13.99;54.35;100758.72;5091351;27;45640;-79
2022/05/30 06:37:57;;;;;;;;;3.50;3.50;;;;;14.09;54.26;100773.91;5091216;27;45668;-81
2022/05/30 06:40:22;;;;;;;;;5.25;5.25;;;;;13.91;54.47;100740.03;5090626;27;45505;-80
2022/05/30 06:42:48;;;;;;;;;4.00;4.00;;;;;14.07;54.24;100745.63;5091180;27;45516;-79
2022/05/30 06:45:13;;;;;;;;;6.00;6.00;;;;;14.01;54.10;100741.13;5091153;27;45486;-79
2022/05/30 06:47:38;;;;;;;;;6.75;5.75;;;;;13.93;54.13;100719.81;5090372;27;45610;-79
2022/05/30 06:50:04;;;;;;;;;6.25;5.25;;;;;14.19;53.70;100759.13;5091384;27;45373;-81
2022/05/30 06:52:30;;;;;;;;;6.25;6.00;;;;;14.08;53.61;100745.66;5090915;27;45575;-79
2022/05/30 06:54:55;;;;;;;;;7.00;6.00;;;;;14.30;53.31;100785.75;5090664;27;45803;-80
2022/05/30 07:00:05;;;;;;;;;5.75;5.00;;;;;14.32;53.11;100778.75;5089972;27;45353;-80
2022/05/30 07:02:30;;;;;;;;;6.25;6.00;;;;;14.35;53.35;100777.06;5090171;27;45373;-80
2022/05/30 07:04:56;;;;;;;;;6.25;6.00;;;;;14.27;53.44;100757.50;5091051;27;45478;-80
2022/05/30 07:07:21;;;;;;;;;5.25;5.25;;;;;14.07;53.14;100704.25;5090700;27;45745;-80
2022/05/30 07:09:46;;;;;;;;;6.50;6.00;;;;;14.18;53.18;100712.38;5090071;27;45665;-80
2022/05/30 07:12:12;;;;;;;;;8.67;6.67;;;;;14.31;52.73;100732.03;5090927;27;45440;-80
2022/05/30 07:14:38;;;;;;;;;4.00;4.00;;;;;14.36;52.55;100739.19;5090509;27;45466;-81
2022/05/30 07:17:04;;;;;;;;;5.00;5.00;;;;;14.36;52.97;100741.81;5090021;27;45922;-80
2022/05/30 07:19:30;;;;;;;;;4.00;4.00;;;;;14.43;52.85;100751.66;5071835;27;45972;-80
2022/05/30 07:21:57;;;;;;;;;5.25;5.25;;;;;14.51;52.68;100754.47;5090886;27;45592;-80
2022/05/30 07:24:22;;;;;;;;;4.75;4.75;;;;;14.38;52.35;100721.59;5090215;27;45493;-79
2022/05/30 07:26:48;;;;;;;;;8.50;8.00;;;;;14.63;52.07;100756.44;5089981;27;46159;-80
2022/05/30 07:29:14;;;;;;;;;4.25;4.25;;;;;14.43;51.51;100703.16;5090598;27;45544;-79
2022/05/30 07:31:39;;;;;;;;;4.75;4.75;;;;;14.44;51.83;100710.25;5089298;27;45408;-80
2022/05/30 07:34:04;;;;;;;;;6.00;6.00;;;;;14.46;51.87;100714.69;5090437;27;45443;-80
2022/05/30 07:36:31;;;;;;;;;5.25;5.25;;;;;14.48;51.41;100711.19;5090102;27;46041;-80
2022/05/30 07:38:56;;;;;;;;;5.00;5.00;;;;;14.43;51.59;100697.88;5089809;27;45752;-81
2022/05/30 07:41:24;;;;;;;;;4.00;3.50;;;;;14.80;51.49;100757.66;5089304;27;45377;-79
2022/05/30 07:43:50;;;;;;;;;5.25;5.25;;;;;14.85;51.51;100760.38;5090588;27;45755;-79
2022/05/30 07:46:18;;;;;;;;;8.25;5.00;;;;;14.67;51.33;100735.38;5089563;27;45614;-80
2022/05/30 07:48:44;;;;;;;;;6.00;4.50;;;;;14.89;51.39;100763.09;5090226;27;46243;-79
2022/05/30 07:51:12;;;;;;;;;4.00;4.00;;;;;14.69;51.53;100719.53;5090552;27;45714;-81
2022/05/30 07:53:39;;;;;;;;;4.00;4.00;;;;;14.98;51.22;100754.44;5089692;27;45710;-80
2022/05/30 07:56:06;;;;;;;;;5.25;5.00;;;;;14.79;50.94;100721.47;5090367;27;46297;-81
2022/05/30 07:58:31;;;;;;;;;6.75;5.00;;;;;14.98;50.77;100754.44;5089885;27;46265;-81
2022/05/30 08:00:57;;;;;;;;;5.00;4.00;;;;;14.97;50.95;100750.00;5089116;27;45336;-80
2022/05/30 08:03:24;;;;;;;;;4.00;4.00;;;;;14.86;50.57;100719.81;5071533;27;45391;-81
2022/05/30 08:05:49;;;;;;;;;5.00;4.75;;;;;14.94;50.85;100729.66;5089734;27;46582;-79
2022/05/30 08:08:16;;;;;;;;;3.75;3.75;;;;;15.15;50.64;100763.53;5090054;27;45365;-79
2022/05/30 08:10:41;;;;;;;;;2.75;2.75;;;;;15.09;50.14;100749.31;5101860;27;45398;-81
2022/05/30 08:13:07;;;;;;;;;3.00;3.00;;;;;14.94;49.43;100724.38;5110848;27;45358;-80
2022/05/30 08:15:32;;;;;;;;;2.00;2.00;;;;;15.13;49.16;100749.41;5109517;27;46062;-79
2022/05/30 08:18:00;;;;;;;;;2.75;2.50;;;;;15.13;49.10;100743.22;5110285;27;45532;-80
2022/05/30 08:20:28;;;;;;;;;3.50;3.00;;;;;15.01;49.62;100711.22;5110520;27;45381;-80
2022/05/30 08:22:54;;;;;;;;;5.00;5.00;;;;;15.05;49.54;100718.38;5109767;27;45669;-80
2022/05/30 08:25:21;;;;;;;;;3.50;3.50;;;;;15.17;49.37;100734.44;5110303;27;45450;-80
2022/05/30 08:27:48;;;;;;;;;3.00;3.00;;;;;15.27;49.23;100743.41;5110337;27;46031;-79
2022/05/30 08:30:17;;;;;;;;;3.00;3.00;;;;;15.36;48.16;100746.19;5091345;27;45755;-81
2022/05/30 08:32:44;;;;;;;;;3.00;2.25;;;;;15.20;48.07;100710.66;5109963;27;45307;-80
2022/05/30 08:35:16;;;;;;;;;2.75;2.75;;;;;15.23;48.05;100710.72;5110478;27;46729;-80
2022/05/30 08:37:42;;;;;;;;;2.00;2.00;;;;;15.42;47.49;100744.56;5109556;27;45913;-79
2022/05/30 08:43:15;;;;;;;;;4.50;4.00;;;;;15.55;47.62;100748.25;5110806;27;45700;-81
2022/05/30 08:45:42;;;;;;;;;4.75;3.75;;;;;15.35;47.68;100700.28;5109221;27;46470;-79
2022/05/30 08:48:14;;;;;;;;;4.00;4.00;;;;;15.55;47.51;100739.41;5110151;27;45546;-81
2022/05/30 08:50:58;;;;;;;;;4.50;3.25;;;;;15.58;47.08;100737.72;5091166;27;45435;-83
2022/05/30 08:53:42;;;;;;;;;5.25;3.50;;;;;15.75;47.46;100753.88;5111893;27;45512;-80
2022/05/30 08:56:28;;;;;;;;;3.50;3.50;;;;;15.80;47.24;100749.50;5095098;27;48145;-84
2022/05/30 08:59:12;;;;;;;;;3.75;3.00;;;;;15.83;46.72;100757.50;5112847;27;45690;-83
2022/05/30 09:01:43;;;;;;;;;2.50;2.50;;;;;15.78;46.77;100729.19;5112996;27;44916;-83
2022/05/30 09:04:22;;;;;;;;;4.00;3.25;;;;;15.39;47.00;100659.75;5094786;27;45493;-80
2022/05/30 09:06:57;;;;;;;;;3.00;3.00;;;;;15.94;46.54;100745.28;5112722;27;45400;-83
2022/05/30 09:09:43;;;;;;;;;4.00;4.00;;;;;16.03;46.77;100748.94;5112645;27;45897;-83
2022/05/30 09:12:30;;;;;;;;;4.75;3.25;;;;;16.07;46.31;100749.00;5074600;27;45522;-82
2022/05/30 09:15:08;;;;;;;;;4.00;4.00;;;;;16.06;46.54;100733.03;5091683;27;45461;-81
2022/05/30 09:17:56;;;;;;;;;3.00;3.00;;;;;16.15;45.87;100734.03;5073642;27;46186;-82
2022/05/30 09:20:23;;;;;;;;;3.75;3.00;;;;;16.16;46.00;100746.47;5074183;27;45808;-83
2022/05/30 09:22:50;;;;;;;;;5.00;4.00;;;;;16.11;46.12;100726.94;5073492;27;45481;-82
2022/05/30 09:28:04;;;;;;;;;3.25;3.25;;;;;16.20;45.61;100723.50;5092624;27;45532;-80
2022/05/30 09:30:53;;;;;;;;;3.75;3.75;;;;;15.94;44.84;100676.38;5072663;27;45494;-81
2022/05/30 09:33:31;;;;;;;;;4.50;3.50;;;;;16.28;44.35;100728.91;5092508;27;45360;-81
2022/05/30 09:36:29;;;;;;;;;2.50;2.00;;;;;16.29;44.78;100728.91;5092478;27;45648;-80
2022/05/30 09:38:56;;;;;;;;;3.00;3.00;;;;;16.17;44.40;100699.59;5076186;27;46681;-82
2022/05/30 09:41:29;;;;;;;;;3.25;2.75;;;;;16.09;44.81;100670.34;5092593;27;45327;-81
2022/05/30 09:44:03;;;;;;;;;3.00;3.00;;;;;16.19;44.34;100680.19;5092190;27;45515;-82
2022/05/30 09:46:37;;;;;;;;;4.00;3.00;;;;;16.20;44.18;100674.00;5091644;27;45560;-82
2022/05/30 09:49:14;;;;;;;;;4.00;3.25;;;;;16.51;44.20;100719.44;5092344;27;46194;-83
2022/05/30 09:51:46;;;;;;;;;5.00;5.00;;;;;16.52;44.32;100714.13;5091382;27;45831;-82
2022/05/30 09:54:26;;;;;;;;;2.75;2.75;;;;;16.56;43.91;100708.84;5073852;27;45452;-80
2022/05/30 09:57:04;;;;;;;;;4.00;4.00;;;;;16.48;43.63;100690.19;5073453;27;45414;-83
2022/05/30 09:59:29;;;;;;;;;4.00;4.00;;;;;16.63;43.72;100708.03;5090917;27;47754;-82
2022/05/30 10:01:55;;;;;;;;;4.00;4.00;;;;;16.45;43.47;100668.94;5091280;27;45297;-80
2022/05/30 10:04:41;;;;;;;;;3.00;3.00;;;;;16.73;43.51;100708.16;5072345;27;45546;-80
2022/05/30 10:07:09;;;;;;;;;5.00;4.50;;;;;16.79;43.60;100709.06;5091900;27;45364;-83
2022/05/30 10:09:40;;;;;;;;;3.50;3.50;;;;;16.57;43.68;100662.88;5094101;27;45796;-80
2022/05/30 10:12:06;;;;;;;;;3.00;3.00;;;;;16.51;43.41;100655.75;5112317;27;46152;-81
2022/05/30 10:14:34;;;;;;;;;4.75;4.00;;;;;16.79;43.20;100691.38;5111985;27;45408;-81
2022/05/30 10:17:26;;;;;;;;;3.50;3.50;;;;;16.95;43.40;100695.06;5111959;27;45712;-80
2022/05/30 10:19:52;;;;;;;;;4.00;4.00;;;;;17.00;43.47;100678.31;5111994;27;45479;-81
2022/05/30 10:28:45;;;;;;;;;4.00;3.00;;;;;17.43;42.42;100669.69;5112035;27;45611;-81
2022/05/30 10:31:48;;;;;;;;;4.50;4.00;;;;;17.50;42.08;100698.09;5093520;27;47439;-81
2022/05/30 10:34:53;;;;;;;;;4.00;3.00;;;;;17.47;42.43;100698.94;5112520;27;45453;-81
2022/05/30 10:38:00;;;;;;;;;4.25;4.25;;;;;17.72;42.92;100705.28;5112043;27;45447;-80
2022/05/30 10:40:49;;;;;;;;;4.00;4.00;;;;;17.97;42.56;100685.03;5098037;27;45854;-80
2022/05/30 10:43:20;;;;;;;;;3.00;3.00;;;;;18.26;41.39;100681.56;5111777;27;46463;-81
2022/05/30 10:46:39;;;;;;;;;5.00;5.00;;;;;18.62;40.71;100706.47;5111200;27;45952;-80
2022/05/30 10:49:14;;;;;;;;;4.75;4.00;;;;;18.62;40.77;100702.06;5007823;28;45494;-79
2022/05/30 10:51:57;;;;;;;;;6.00;5.00;;;;;18.54;40.53;100694.03;5109172;27;45453;-80
2022/05/30 10:54:40;;;;;;;;;3.00;3.00;;;;;18.13;40.40;100658.47;5111828;27;45535;-80
2022/05/30 10:57:16;;;;;;;;;4.25;4.25;;;;;18.33;40.29;100709.09;5112002;27;45887;-80
2022/05/30 11:00:19;;;;;;;;;4.00;4.00;;;;;18.27;40.69;100691.31;5111568;27;45599;-80
2022/05/30 11:03:20;;;;;;;;;5.00;4.00;;;;;18.18;41.01;100688.66;5007220;28;45577;-80
2022/05/30 11:06:05;;;;;;;;;3.25;3.00;;;;;18.13;40.47;100706.34;5111021;27;45512;-82
2022/05/30 11:08:45;;;;;;;;;2.00;2.00;;;;;17.81;40.89;100661.94;5111461;27;45451;-80
2022/05/30 11:11:19;;;;;;;;;4.25;4.00;;;;;17.83;41.25;100654.84;5095864;27;45594;-81
2022/05/30 11:13:56;;;;;;;;;3.75;3.75;;;;;18.03;40.66;100690.41;5090539;27;45539;-81
2022/05/30 11:16:40;;;;;;;;;4.00;3.25;;;;;18.00;40.86;100663.78;5090422;27;45723;-81
2022/05/30 11:19:12;;;;;;;;;3.00;3.00;;;;;18.32;40.67;100708.19;5090803;27;45965;-81
2022/05/30 11:21:46;;;;;;;;;3.00;3.00;;;;;18.24;40.36;100664.72;5090101;27;45500;-80
2022/05/30 11:24:13;;;;;;;;;4.00;4.00;;;;;18.41;40.69;100664.75;5090812;27;45292;-81
2022/05/30 11:26:58;;;;;;;;;3.00;3.00;;;;;18.87;40.17;100692.34;5071680;27;48425;-80
2022/05/30 11:29:53;;;;;;;;;3.00;3.00;;;;;18.90;39.40;100675.44;5090835;27;45374;-79
2022/05/30 11:32:42;;;;;;;;;3.25;3.00;;;;;19.12;39.14;100687.88;5072122;27;45486;-80
2022/05/30 11:35:13;;;;;;;;;4.25;3.50;;;;;19.20;38.43;100686.06;5082496;27;45618;-80
2022/05/30 11:37:39;;;;;;;;;2.50;2.50;;;;;19.22;38.60;100694.06;5090128;27;45628;-81
2022/05/30 11:40:40;;;;;;;;;2.67;2.33;;;;;19.05;39.38;100662.13;5090681;27;45565;-80
2022/05/30 11:43:24;;;;;;;;;2.75;2.75;;;;;19.17;38.69;100683.44;5090159;27;45383;-80
2022/05/30 11:46:14;;;;;;;;;3.25;3.25;;;;;19.09;38.36;100682.53;5089673;27;45476;-80
2022/05/30 11:48:56;;;;;;;;;4.25;3.50;;;;;18.91;38.15;100631.94;5089871;27;45449;-80
2022/05/30 11:51:30;;;;;;;;;4.00;3.00;;;;;19.17;38.03;100687.88;5089830;27;45946;-80
2022/05/30 11:54:11;;;;;;;;;2.50;2.00;;;;;18.94;38.58;100646.16;5090174;27;45438;-80
2022/05/30 11:56:42;;;;;;;;;2.00;2.00;;;;;19.17;38.55;100688.75;5089816;27;45475;-83
2022/05/30 11:59:37;;;;;;;;;2.50;2.50;;;;;19.20;37.65;100666.53;5071122;27;48314;-81
2022/05/30 12:02:10;;;;;;;;;1.25;1.25;;;;;19.23;38.32;100661.19;5041340;27;45696;-79
2022/05/30 12:05:26;;;;;;;;;2.25;1.50;;;;;19.49;38.75;100688.66;5071260;27;45576;-81
2022/05/30 12:08:11;;;;;;;;;2.25;2.25;;;;;19.52;37.81;100675.34;5054715;27;45468;-80